Monday, December 18, 2017, 2:37 PM CST
Back to Local

KFNB, Falls City Brenner Fld Airport

Location: Falls City, NE, United States Lat: 40.083
Local Time: 2:37 PM CST (20:37 GMT) Lon: -95.583
Time Zone: US/Central Elev: 984 ft

Show me the last for .
Show Decoded

2017-12-18 13:53 METAR KFNB 181953Z AUTO 23011KT 10SM CLR 12/00 A2993 RMK AO2 SLP139 T01220000 =
2017-12-18 12:53 METAR KFNB 181853Z AUTO 24009KT 10SM CLR 11/01 A2995 RMK AO2 SLP147 T01060006 =
2017-12-18 11:53 METAR KFNB 181753Z AUTO 25008KT 10SM CLR 08/01 A2999 RMK AO2 SLP158 T00830006
                 10083 21017 58007 =
2017-12-18 10:53 METAR KFNB 181653Z AUTO 23009KT 10SM CLR 07/01 A3002 RMK AO2 SLP170 T00670011 =
2017-12-18 09:53 METAR KFNB 181553Z AUTO 23006KT 10SM CLR 05/01 A3003 RMK AO2 SLP174 T00500006 =
2017-12-18 08:53 METAR KFNB 181453Z AUTO 20010KT 10SM CLR 01/M01 A3001 RMK AO2 SLP168 T00111006
                 53002 =
2017-12-18 07:53 METAR KFNB 181353Z AUTO 19006KT 7SM CLR M01/M02 A2999 RMK AO2 SLP164 T10111022 =
2017-12-18 06:53 METAR KFNB 181253Z AUTO 18004KT 7SM CLR M01/M02 A3000 RMK AO2 SLP165 T10061022 =
2017-12-18 05:53 METAR KFNB 181153Z AUTO 00000KT 5SM BR CLR M02/M03 A3000 RMK AO2 SLP167 70007
                 I6001 T10171028 10028 21028 56004 =
2017-12-18 04:53 METAR KFNB 181053Z AUTO 22003KT 5SM BR CLR 00/M01 A3000 RMK AO2 SLP166 T00001006
                 =
2017-12-18 03:53 METAR KFNB 180953Z AUTO 23006KT 4SM BR CLR 00/00 A3000 RMK AO2 SLP166 I1001
                 T00000000 =
2017-12-18 03:41 METAR KFNB 180941Z AUTO 23005KT 4SM BR CLR 01/00 A3000 RMK AO2 I1001 T00060000 =
2017-12-18 03:33 METAR KFNB 180933Z AUTO 22004KT 2SM BR CLR 00/M01 A3001 RMK AO2 I1001 T00001006
                 =
2017-12-18 03:11 METAR KFNB 180911Z AUTO 00000KT 3/4SM BR CLR M01/M02 A3001 RMK AO2 T10111017 =
2017-12-18 02:56 METAR KFNB 180856Z AUTO 21004KT 2SM BR FEW006 01/M01 A3001 RMK AO2 T00061006 =
2017-12-18 02:53 METAR KFNB 180853Z AUTO 21004KT 1SM BR VV006 00/M01 A3001 RMK AO2 SLP170
                 T00001006 55000 =
2017-12-18 02:17 METAR KFNB 180817Z AUTO 00000KT 1/2SM FG VV006 01/01 A3001 RMK AO2 T00110006 =
2017-12-18 02:09 METAR KFNB 180809Z AUTO 00000KT 1/4SM FG VV006 01/01 A3001 RMK AO2 T00110006 =
2017-12-18 01:53 METAR KFNB 180753Z AUTO 00000KT 3/4SM BR VV006 01/01 A3001 RMK AO2 SLP166
                 T00110011 =
2017-12-18 01:48 METAR KFNB 180748Z AUTO 00000KT 1SM BR VV006 02/01 A3000 RMK AO2 =
2017-12-18 01:44 METAR KFNB 180744Z AUTO 00000KT 2 1/2SM BR CLR 02/01 A3000 RMK AO2 T00220011 =
2017-12-18 01:29 METAR KFNB 180729Z AUTO 00000KT 1 3/4SM BR FEW039 02/01 A3000 RMK AO2 T00170011
                 =
2017-12-18 00:53 METAR KFNB 180653Z AUTO 19003KT 4SM BR OVC039 03/02 A3000 RMK AO2 SLP165
                 T00280022 =
2017-12-18 00:15 METAR KFNB 180615Z AUTO 00000KT 4SM BR SCT025 OVC038 03/02 A3001 RMK AO2
                 T00280017 =
2017-12-17 23:53 METAR KFNB 180553Z AUTO 27003KT 4SM BR OVC023 03/02 A3001 RMK AO2 SLP169
                 T00280017 10033 20022 400610022 56002 =
2017-12-17 22:53 METAR KFNB 180453Z AUTO 00000KT 3SM BR FEW003 OVC017 03/02 A3001 RMK AO2 SLP170
                 T00280017 =
2017-12-17 22:43 METAR KFNB 180443Z AUTO 00000KT 3SM BR FEW003 OVC015 03/02 A3001 RMK AO2
                 T00280017 =
2017-12-17 22:00 METAR KFNB 180400Z AUTO 00000KT 2 1/2SM BR OVC003 02/02 A3001 =
2017-12-17 21:53 METAR KFNB 180353Z AUTO 00000KT 3SM BR OVC003 02/02 A3001 RMK AO2 SLP170
                 T00220017 =
2017-12-17 21:49 METAR KFNB 180349Z AUTO 00000KT 3SM BR OVC003 02/02 A3002 RMK AO2 =
2017-12-17 21:10 METAR KFNB 180310Z AUTO 35003KT 2 1/2SM BR OVC003 02/02 A3002 RMK AO2 T00220017
                 =
2017-12-17 21:02 METAR KFNB 180302Z AUTO 35004KT 3SM BR OVC003 03/02 A3002 =
2017-12-17 20:53 METAR KFNB 180253Z AUTO 35005KT 2 1/2SM BR OVC003 03/02 A3003 RMK AO2 SLP173
                 T00280022 51014 =
2017-12-17 20:39 METAR KFNB 180239Z AUTO 35004KT 2SM BR OVC003 03/02 A3002 =
2017-12-17 20:23 METAR KFNB 180223Z AUTO 34004KT 3SM BR OVC003 03/02 A3002 RMK AO2 T00280022 =
2017-12-17 20:14 METAR KFNB 180214Z AUTO 34004KT 2 1/2SM BR OVC004 03/02 A3002 RMK AO2 T00280022
                 =
2017-12-17 19:53 METAR KFNB 180153Z AUTO 01003KT 5SM BR OVC006 03/02 A3002 RMK AO2 SLP169
                 T00330022 =
2017-12-17 18:53 METAR KFNB 180053Z AUTO 35004KT 7SM OVC007 03/02 A3000 RMK AO2 SLP165 T00330017
                 =
2017-12-17 17:53 METAR KFNB 172353Z AUTO 36003KT 8SM OVC008 03/02 A2998 RMK AO2 SLP158 T00330017
                 10056 20033 50007 =
2017-12-17 17:34 METAR KFNB 172334Z AUTO 36004KT 8SM OVC009 03/02 A2998 RMK AO2 T00330017 =
2017-12-17 17:19 METAR KFNB 172319Z AUTO 36005KT 9SM OVC010 04/02 A2998 RMK AO2 T00390022 =
2017-12-17 16:53 METAR KFNB 172253Z AUTO 35004KT 9SM OVC009 04/02 A2999 RMK AO2 SLP162 T00390022
                 =
2017-12-17 16:42 METAR KFNB 172242Z AUTO 33006KT 9SM OVC010 04/02 A3000
2017-12-17 15:53 METAR KFNB 172153Z AUTO 30004KT 10SM OVC008 05/03 A2999 RMK AO2 SLP159 T00500028
                 =
2017-12-17 14:53 METAR KFNB 172053Z AUTO VRB03KT 10SM OVC008 05/03 A2996 RMK AO2 SLP151 T00500028
                 55013 =

Support USWX by starting your Amazon purchase here.